createdAt,value
2022-11-25T00:01:15.065Z,6.50
2022-11-25T00:03:43.554Z,6.53
2022-11-25T00:06:13.469Z,6.43
2022-11-25T00:08:42.305Z,7.87
2022-11-25T00:11:10.089Z,6.47
2022-11-25T00:13:38.043Z,7.00
2022-11-25T00:16:10.903Z,7.40
2022-11-25T00:18:38.368Z,6.60
2022-11-25T00:21:12.378Z,6.90
2022-11-25T00:23:39.557Z,6.13
2022-11-25T00:26:13.261Z,7.23
2022-11-25T00:28:41.617Z,7.83
2022-11-25T00:31:13.797Z,7.37
2022-11-25T00:33:41.313Z,6.93
2022-11-25T00:36:20.836Z,5.87
2022-11-25T00:38:52.295Z,5.73
2022-11-25T00:41:37.952Z,5.40
2022-11-25T00:44:23.742Z,5.13
2022-11-25T00:46:50.771Z,5.93
2022-11-25T00:49:17.662Z,5.87
2022-11-25T00:51:44.779Z,6.67
2022-11-25T00:54:11.887Z,6.30
2022-11-25T00:56:38.945Z,5.80
2022-11-25T00:59:05.962Z,7.37
2022-11-25T01:01:33.067Z,6.90
2022-11-25T01:04:01.246Z,6.53
2022-11-25T01:06:28.271Z,6.33
2022-11-25T01:08:55.413Z,6.00
2022-11-25T01:11:24.123Z,6.27
2022-11-25T01:13:59.344Z,6.73
2022-11-25T01:16:28.464Z,7.17
2022-11-25T01:18:55.442Z,5.93
2022-11-25T01:21:27.847Z,7.40
2022-11-25T01:23:55.206Z,6.47
2022-11-25T01:26:24.999Z,6.23
2022-11-25T01:29:03.535Z,6.17
2022-11-25T01:31:33.661Z,6.50
2022-11-25T01:34:17.375Z,6.77
2022-11-25T01:36:44.356Z,5.30
2022-11-25T01:39:19.583Z,5.60
2022-11-25T01:41:47.392Z,6.17
2022-11-25T01:44:21.819Z,5.70
2022-11-25T01:46:57.274Z,6.23
2022-11-25T01:49:24.130Z,5.77
2022-11-25T01:52:06.777Z,5.80
2022-11-25T01:54:44.320Z,5.77
2022-11-25T01:57:37.403Z,5.33
2022-11-25T02:00:07.942Z,5.57
2022-11-25T02:02:35.144Z,6.03
2022-11-25T02:05:09.661Z,6.77
2022-11-25T02:07:39.993Z,6.20
2022-11-25T02:10:14.626Z,6.63
2022-11-25T02:12:43.724Z,6.20
2022-11-25T02:15:11.117Z,5.93
2022-11-25T02:17:38.617Z,6.10
2022-11-25T02:20:08.061Z,6.27
2022-11-25T02:23:02.732Z,5.97
2022-11-25T02:25:35.301Z,6.10
2022-11-25T02:28:07.047Z,5.63
2022-11-25T02:30:34.781Z,6.23
2022-11-25T02:33:02.623Z,5.93
2022-11-25T02:35:34.319Z,6.03
2022-11-25T02:38:13.337Z,6.10
2022-11-25T02:40:59.387Z,5.13
2022-11-25T02:43:27.237Z,5.47
2022-11-25T02:46:03.262Z,5.40
2022-11-25T02:49:06.722Z,5.63
2022-11-25T02:51:22.514Z,5.67
2022-11-25T02:53:49.637Z,5.77
2022-11-25T02:56:20.092Z,5.83
2022-11-25T02:58:47.046Z,6.33
2022-11-25T03:01:14.141Z,5.57
2022-11-25T03:03:41.108Z,5.50
2022-11-25T03:06:09.242Z,5.67
2022-11-25T03:08:36.965Z,5.47
2022-11-25T03:11:04.560Z,5.50
2022-11-25T03:13:31.560Z,4.93
2022-11-25T03:15:58.554Z,5.13
2022-11-25T03:18:25.661Z,6.23
2022-11-25T03:20:54.471Z,5.40
2022-11-25T03:23:21.928Z,7.07
2022-11-25T03:25:48.955Z,6.40
2022-11-25T03:28:15.884Z,7.07
2022-11-25T03:30:43.775Z,6.87
2022-11-25T03:33:10.660Z,7.77
2022-11-25T03:35:37.653Z,6.87
2022-11-25T03:38:04.682Z,7.73
2022-11-25T03:40:31.647Z,7.37
2022-11-25T03:42:58.667Z,7.00
2022-11-25T03:45:25.638Z,7.40
2022-11-25T03:47:52.532Z,7.50
2022-11-25T03:50:19.639Z,8.30
2022-11-25T03:52:46.619Z,8.40
2022-11-25T03:55:13.594Z,9.73
2022-11-25T03:57:41.186Z,7.90
2022-11-25T04:00:09.464Z,8.77
2022-11-25T04:02:36.559Z,8.03
2022-11-25T04:05:05.554Z,8.97
2022-11-25T04:07:32.808Z,8.77
2022-11-25T04:09:59.782Z,9.13
2022-11-25T04:12:45.082Z,9.60
2022-11-25T04:15:12.205Z,8.53
2022-11-25T04:17:39.149Z,8.20
2022-11-25T04:20:06.869Z,9.57
2022-11-25T04:22:33.833Z,9.70
2022-11-25T04:25:00.836Z,7.93
2022-11-25T04:27:27.749Z,9.97
2022-11-25T04:29:54.773Z,9.87
2022-11-25T04:32:21.884Z,9.50
2022-11-25T04:34:48.929Z,9.83
2022-11-25T04:37:15.885Z,11.00
2022-11-25T04:39:42.865Z,10.97
2022-11-25T04:42:28.246Z,11.00
2022-11-25T04:45:14.461Z,11.20
2022-11-25T04:47:43.313Z,11.53
2022-11-25T04:50:15.292Z,11.20
2022-11-25T04:52:42.593Z,12.10
2022-11-25T04:55:10.099Z,11.90
2022-11-25T04:57:37.152Z,12.13
2022-11-25T05:00:05.320Z,12.80
2022-11-25T05:02:32.409Z,11.57
2022-11-25T05:04:59.601Z,12.13
2022-11-25T05:07:28.107Z,14.47
2022-11-25T05:09:57.012Z,12.37
2022-11-25T05:12:26.696Z,13.73
2022-11-25T05:14:55.415Z,13.47
2022-11-25T05:17:25.420Z,12.13
2022-11-25T05:19:53.574Z,13.40
2022-11-25T05:22:23.863Z,13.03
2022-11-25T05:24:51.108Z,13.20
2022-11-25T05:27:18.440Z,12.83
2022-11-25T05:29:45.708Z,13.60
2022-11-25T05:32:13.872Z,15.37
2022-11-25T05:34:42.772Z,13.20
2022-11-25T05:37:12.457Z,13.80
2022-11-25T05:39:40.496Z,12.50
2022-11-25T05:42:07.527Z,14.57
2022-11-25T05:44:34.531Z,14.50
2022-11-25T05:47:01.617Z,13.27
2022-11-25T05:49:29.591Z,14.20
2022-11-25T05:51:56.532Z,13.20
2022-11-25T05:54:23.531Z,13.73
2022-11-25T05:56:51.555Z,13.57
2022-11-25T05:59:18.551Z,12.37
2022-11-25T06:01:45.546Z,12.90
2022-11-25T06:04:12.547Z,12.87
2022-11-25T06:06:40.584Z,13.30
2022-11-25T06:09:07.513Z,14.17
2022-11-25T06:11:35.542Z,16.07
2022-11-25T06:14:02.513Z,13.93
2022-11-25T06:16:29.989Z,13.30
2022-11-25T06:18:56.958Z,14.33
2022-11-25T06:21:24.001Z,13.53
2022-11-25T06:23:50.997Z,14.03
2022-11-25T06:26:24.107Z,12.47
2022-11-25T06:28:54.469Z,13.67
2022-11-25T06:31:25.800Z,14.30
2022-11-25T06:33:53.726Z,14.30
2022-11-25T06:36:21.519Z,13.83
2022-11-25T06:38:53.753Z,22.80
2022-11-25T06:41:22.627Z,14.80
2022-11-25T06:43:49.975Z,23.17
2022-11-25T06:46:24.396Z,17.37
2022-11-25T06:48:53.076Z,15.93
2022-11-25T06:51:20.319Z,14.57
2022-11-25T06:53:47.311Z,12.60
2022-11-25T06:56:17.063Z,14.63
2022-11-25T06:58:45.194Z,13.33
2022-11-25T07:01:20.800Z,13.37
2022-11-25T07:03:49.399Z,16.70
2022-11-25T07:06:17.896Z,14.07
2022-11-25T07:08:46.897Z,15.47
2022-11-25T07:11:13.755Z,17.00
2022-11-25T07:13:42.018Z,15.53
2022-11-25T07:16:10.621Z,15.70
2022-11-25T07:18:39.404Z,14.43
2022-11-25T07:21:17.091Z,14.40
2022-11-25T07:23:45.672Z,15.03
2022-11-25T07:26:15.972Z,14.93
2022-11-25T07:28:43.618Z,14.10
2022-11-25T07:31:23.670Z,13.13
2022-11-25T07:34:20.145Z,14.47
2022-11-25T07:36:49.088Z,14.93
2022-11-25T07:39:22.152Z,14.80
2022-11-25T07:41:55.263Z,13.80
2022-11-25T07:44:22.257Z,12.20
2022-11-25T07:46:50.684Z,12.30
2022-11-25T07:49:20.694Z,11.97
2022-11-25T07:51:53.683Z,12.63
2022-11-25T07:54:21.922Z,13.73
2022-11-25T07:56:50.824Z,13.43
2022-11-25T07:59:20.556Z,14.27
2022-11-25T08:01:50.665Z,12.83
2022-11-25T08:04:20.496Z,13.93
2022-11-25T08:06:51.354Z,12.93
2022-11-25T08:09:21.226Z,12.50
2022-11-25T08:11:48.755Z,13.53
2022-11-25T08:14:16.737Z,13.20
2022-11-25T08:16:43.848Z,14.23
2022-11-25T08:19:14.136Z,14.20
2022-11-25T08:21:41.419Z,14.33
2022-11-25T08:24:08.411Z,12.80
2022-11-25T08:26:37.762Z,11.73
2022-11-25T08:29:07.931Z,10.67
2022-11-25T08:31:38.012Z,9.97
2022-11-25T08:34:06.672Z,9.47
2022-11-25T08:36:35.753Z,8.73
2022-11-25T08:39:29.020Z,10.23
2022-11-25T08:41:54.011Z,13.00
2022-11-25T08:44:20.929Z,9.47
2022-11-25T08:46:48.069Z,8.00
2022-11-25T08:49:17.431Z,10.33
2022-11-25T08:51:44.442Z,9.73
2022-11-25T08:54:11.721Z,7.63
2022-11-25T08:56:38.731Z,6.73
2022-11-25T08:59:06.259Z,7.07
2022-11-25T09:01:33.340Z,5.80
2022-11-25T09:04:00.894Z,5.07
2022-11-25T09:06:28.804Z,5.70
2022-11-25T09:08:59.651Z,6.40
2022-11-25T09:11:26.931Z,6.17
2022-11-25T09:13:54.121Z,5.70
2022-11-25T09:16:21.511Z,5.67
2022-11-25T09:18:54.075Z,6.03
2022-11-25T09:21:25.121Z,5.10
2022-11-25T09:23:54.120Z,5.27
2022-11-25T09:26:29.905Z,6.17
2022-11-25T09:28:57.954Z,5.43
2022-11-25T09:31:25.051Z,4.47
2022-11-25T09:33:52.065Z,5.40
2022-11-25T09:36:20.988Z,5.57
2022-11-25T09:38:48.067Z,6.13
2022-11-25T09:41:45.688Z,5.60
2022-11-25T09:44:52.308Z,5.23
2022-11-25T09:47:31.036Z,4.97
2022-11-25T09:50:17.824Z,5.20
2022-11-25T09:53:08.990Z,5.47
2022-11-25T09:55:42.625Z,5.50
2022-11-25T09:58:21.601Z,8.87
2022-11-25T10:00:51.318Z,6.13
2022-11-25T10:03:41.466Z,6.70
2022-11-25T10:06:25.658Z,15.23
2022-11-25T10:09:14.282Z,6.33
2022-11-25T10:11:52.545Z,5.40
2022-11-25T10:14:40.980Z,4.93
2022-11-25T10:17:28.154Z,4.90
2022-11-25T10:19:58.120Z,5.37
2022-11-25T10:22:26.708Z,5.47
2022-11-25T10:24:57.854Z,4.57
2022-11-25T10:27:41.409Z,5.97
2022-11-25T10:30:25.972Z,5.00
2022-11-25T10:33:11.371Z,4.83
2022-11-25T10:35:48.484Z,4.20
2022-11-25T10:38:21.855Z,4.70
2022-11-25T10:40:51.043Z,4.70
2022-11-25T10:43:18.051Z,4.20
2022-11-25T10:46:08.300Z,4.93
2022-11-25T10:49:07.737Z,5.10
2022-11-25T10:51:39.951Z,4.80
2022-11-25T10:54:27.690Z,5.90
2022-11-25T10:57:00.576Z,5.40
2022-11-25T10:59:39.690Z,5.10
2022-11-25T11:02:26.636Z,5.53
2022-11-25T11:05:10.435Z,5.43
2022-11-25T11:07:40.627Z,5.40
2022-11-25T11:10:13.359Z,5.70
2022-11-25T11:13:04.050Z,5.70
2022-11-25T11:15:41.494Z,4.67
2022-11-25T11:18:26.610Z,5.27
2022-11-25T11:20:57.232Z,5.63
2022-11-25T11:23:25.365Z,5.43
2022-11-25T11:26:09.870Z,5.57
2022-11-25T11:28:37.368Z,5.57
2022-11-25T11:31:20.518Z,5.87
2022-11-25T11:33:47.400Z,4.30
2022-11-25T11:36:39.250Z,4.93
2022-11-25T11:39:24.394Z,4.80
2022-11-25T11:42:04.951Z,4.97
2022-11-25T11:45:10.032Z,5.70
2022-11-25T11:47:40.227Z,4.78
2022-11-25T11:50:25.709Z,4.37
2022-11-25T11:53:01.268Z,5.03
2022-11-25T11:56:11.939Z,5.10
2022-11-25T11:59:05.732Z,4.73
2022-11-25T12:01:41.791Z,11.07
2022-11-25T12:04:30.091Z,15.40
2022-11-25T12:07:14.691Z,17.40
2022-11-25T12:09:57.767Z,24.87
2022-11-25T12:12:34.107Z,14.47
2022-11-25T12:15:17.369Z,16.70
2022-11-25T12:17:53.024Z,14.30
2022-11-25T12:20:45.466Z,7.00
2022-11-25T12:23:29.501Z,5.30
2022-11-25T12:26:03.087Z,5.23
2022-11-25T12:28:37.929Z,3.80
2022-11-25T12:31:10.660Z,4.53
2022-11-25T12:33:52.537Z,3.40
2022-11-25T12:36:28.241Z,3.47
2022-11-25T12:39:01.992Z,3.43
2022-11-25T12:41:39.928Z,3.77
2022-11-25T12:44:12.555Z,5.20
2022-11-25T12:46:52.063Z,4.17
2022-11-25T12:49:23.583Z,4.30
2022-11-25T12:52:06.923Z,3.40
2022-11-25T12:55:09.277Z,4.13
2022-11-25T12:58:09.582Z,3.30
2022-11-25T13:01:03.524Z,3.03
2022-11-25T13:03:36.763Z,2.90
2022-11-25T13:06:21.796Z,2.90
2022-11-25T13:09:07.526Z,3.03
2022-11-25T13:12:13.173Z,3.33
2022-11-25T13:15:20.687Z,2.60
2022-11-25T13:17:50.590Z,3.20
2022-11-25T13:20:29.751Z,2.87
2022-11-25T13:23:05.580Z,3.80
2022-11-25T13:25:33.737Z,3.10
2022-11-25T13:28:03.201Z,3.13
2022-11-25T13:30:32.861Z,2.80
2022-11-25T13:33:20.832Z,2.60
2022-11-25T13:35:53.845Z,2.30
2022-11-25T13:38:30.233Z,1.67
2022-11-25T13:40:58.173Z,2.03
2022-11-25T13:43:25.211Z,2.73
2022-11-25T13:45:52.541Z,2.30
2022-11-25T13:48:24.933Z,2.50
2022-11-25T13:51:12.593Z,2.83
2022-11-25T13:53:40.124Z,2.60
2022-11-25T13:56:25.413Z,2.53
2022-11-25T13:59:10.717Z,3.60
2022-11-25T14:01:39.425Z,2.80
2022-11-25T14:04:08.865Z,3.57
2022-11-25T14:06:39.007Z,3.20
2022-11-25T14:09:43.313Z,2.87
2022-11-25T14:12:23.569Z,2.80
2022-11-25T14:15:05.576Z,3.20
2022-11-25T14:18:02.895Z,3.27
2022-11-25T14:21:14.042Z,3.20
2022-11-25T14:24:06.764Z,3.20
2022-11-25T14:26:55.899Z,3.47
2022-11-25T14:29:52.600Z,4.10
2022-11-25T14:32:57.792Z,4.50
2022-11-25T14:35:30.621Z,3.30
2022-11-25T14:38:03.311Z,3.90
2022-11-25T14:40:42.426Z,4.00
2022-11-25T14:43:18.937Z,4.33
2022-11-25T14:45:45.953Z,4.37
2022-11-25T14:48:24.329Z,4.37
2022-11-25T14:50:59.646Z,5.00
2022-11-25T14:53:28.094Z,4.60
2022-11-25T14:56:00.284Z,4.13
2022-11-25T14:58:27.773Z,4.90
2022-11-25T15:01:22.075Z,5.67
2022-11-25T15:03:50.593Z,5.60
2022-11-25T15:06:22.397Z,5.03
2022-11-25T15:08:58.302Z,5.80
2022-11-25T15:11:30.142Z,7.03
2022-11-25T15:14:05.989Z,6.90
2022-11-25T15:16:40.042Z,6.37
2022-11-25T15:19:16.313Z,8.03
2022-11-25T15:22:15.044Z,6.27
2022-11-25T15:24:40.372Z,5.53
2022-11-25T15:27:25.608Z,6.30
2022-11-25T15:29:54.228Z,6.47
2022-11-25T15:32:26.739Z,7.13
2022-11-25T15:34:56.990Z,8.63
2022-11-25T15:37:24.310Z,9.33
2022-11-25T15:40:29.411Z,11.27
2022-11-25T15:42:59.131Z,10.40
2022-11-25T15:45:30.221Z,11.37
2022-11-25T15:47:57.872Z,11.43
2022-11-25T15:50:27.229Z,10.90
2022-11-25T15:52:57.247Z,11.83
2022-11-25T15:55:34.872Z,11.17
2022-11-25T15:58:13.482Z,12.13
2022-11-25T16:00:43.253Z,13.37
2022-11-25T16:03:21.583Z,13.67
2022-11-25T16:05:58.975Z,13.77
2022-11-25T16:08:38.222Z,14.70
2022-11-25T16:11:17.155Z,13.57
2022-11-25T16:13:44.834Z,12.00
2022-11-25T16:16:19.784Z,13.13
2022-11-25T16:19:06.232Z,12.87
2022-11-25T16:21:36.186Z,12.90
2022-11-25T16:24:05.953Z,12.53
2022-11-25T16:26:35.725Z,14.20
2022-11-25T16:29:14.527Z,13.87
2022-11-25T16:31:41.945Z,14.70
2022-11-25T16:34:20.231Z,14.73
2022-11-25T16:36:47.413Z,13.00
2022-11-25T16:39:14.534Z,12.67
2022-11-25T16:41:42.528Z,13.47
2022-11-25T16:44:21.453Z,14.47
2022-11-25T16:46:48.894Z,13.63
2022-11-25T16:49:17.750Z,14.17
2022-11-25T16:51:45.150Z,14.37
2022-11-25T16:54:12.740Z,16.33
2022-11-25T16:56:42.036Z,13.70
2022-11-25T16:59:44.753Z,13.30
2022-11-25T17:02:22.573Z,15.80
2022-11-25T17:04:49.684Z,15.37
2022-11-25T17:07:34.698Z,14.67
2022-11-25T17:10:02.216Z,13.43
2022-11-25T17:12:33.363Z,14.57
2022-11-25T17:15:01.538Z,13.43
2022-11-25T17:17:29.381Z,12.93
2022-11-25T17:19:56.497Z,14.07
2022-11-25T17:22:26.544Z,14.30
2022-11-25T17:24:54.008Z,13.57
2022-11-25T17:27:32.397Z,13.67
2022-11-25T17:30:01.529Z,13.63
2022-11-25T17:32:28.660Z,14.57
2022-11-25T17:34:55.882Z,13.33
2022-11-25T17:37:25.013Z,14.63
2022-11-25T17:39:53.668Z,12.93
2022-11-25T17:42:30.310Z,15.30
2022-11-25T17:44:57.753Z,14.97
2022-11-25T17:47:24.828Z,13.13
2022-11-25T17:49:52.164Z,12.93
2022-11-25T17:52:19.237Z,13.33
2022-11-25T17:54:46.287Z,14.50
2022-11-25T17:57:18.967Z,13.33
2022-11-25T17:59:45.912Z,13.83
2022-11-25T18:02:21.367Z,11.63
2022-11-25T18:04:48.907Z,12.23
2022-11-25T18:07:16.211Z,12.20
2022-11-25T18:09:44.610Z,12.50
2022-11-25T18:12:21.622Z,12.80
2022-11-25T18:14:49.151Z,12.30
2022-11-25T18:17:19.082Z,10.67
2022-11-25T18:19:54.226Z,11.70
2022-11-25T18:22:24.424Z,11.13
2022-11-25T18:24:51.952Z,10.43
2022-11-25T18:27:27.305Z,11.67
2022-11-25T18:29:55.676Z,10.70
2022-11-25T18:32:23.868Z,10.40
2022-11-25T18:34:51.644Z,10.87
2022-11-25T18:37:18.756Z,10.37
2022-11-25T18:39:46.679Z,9.73
2022-11-25T18:42:27.395Z,8.87
2022-11-25T18:44:55.981Z,9.73
2022-11-25T18:47:23.299Z,12.10
2022-11-25T18:49:55.504Z,12.70
2022-11-25T18:52:24.269Z,9.53
2022-11-25T18:54:51.293Z,10.43
2022-11-25T18:57:18.396Z,9.63
2022-11-25T18:59:48.076Z,9.77
2022-11-25T19:02:23.287Z,9.63
2022-11-25T19:04:50.321Z,10.23
2022-11-25T19:07:17.316Z,9.17
2022-11-25T19:09:44.364Z,9.40
2022-11-25T19:12:18.665Z,8.77
2022-11-25T19:14:45.988Z,9.10
2022-11-25T19:17:21.768Z,9.77
2022-11-25T19:19:48.889Z,9.13
2022-11-25T19:22:17.888Z,9.60
2022-11-25T19:24:46.207Z,8.97
2022-11-25T19:27:34.075Z,8.63
2022-11-25T19:30:01.040Z,8.47
2022-11-25T19:32:30.619Z,9.17
2022-11-25T19:35:02.808Z,8.47
2022-11-25T19:37:30.915Z,9.10
2022-11-25T19:39:58.171Z,9.37
2022-11-25T19:42:25.903Z,9.43
2022-11-25T19:44:53.163Z,10.00
2022-11-25T19:47:27.320Z,11.03
2022-11-25T19:49:58.555Z,8.67
2022-11-25T19:52:35.176Z,10.43
2022-11-25T19:55:09.856Z,9.80
2022-11-25T19:57:36.823Z,9.57
2022-11-25T20:00:04.542Z,8.90
2022-11-25T20:02:31.655Z,9.13
2022-11-25T20:04:58.733Z,8.63
2022-11-25T20:07:27.233Z,8.37
2022-11-25T20:09:56.187Z,9.30
2022-11-25T20:12:30.882Z,8.10
2022-11-25T20:14:57.797Z,8.83
2022-11-25T20:17:31.081Z,8.87
2022-11-25T20:20:11.965Z,8.50
2022-11-25T20:22:43.024Z,8.63
2022-11-25T20:25:15.487Z,8.47
2022-11-25T20:27:42.542Z,10.03
2022-11-25T20:30:27.609Z,12.57
2022-11-25T20:32:54.722Z,11.53
2022-11-25T20:35:22.683Z,9.40
2022-11-25T20:37:58.235Z,8.57
2022-11-25T20:40:33.178Z,10.10
2022-11-25T20:43:00.408Z,9.83
2022-11-25T20:45:27.586Z,8.10
2022-11-25T20:47:54.864Z,9.77
2022-11-25T20:50:22.817Z,8.33
2022-11-25T20:52:50.609Z,8.20
2022-11-25T20:55:21.155Z,10.73
2022-11-25T20:57:48.521Z,16.70
2022-11-25T21:00:17.492Z,12.40
2022-11-25T21:02:44.647Z,10.67
2022-11-25T21:05:11.662Z,8.37
2022-11-25T21:07:39.352Z,17.60
2022-11-25T21:10:28.113Z,10.43
2022-11-25T21:12:56.391Z,13.97
2022-11-25T21:15:25.603Z,29.03
2022-11-25T21:17:52.579Z,22.57
2022-11-25T21:20:20.481Z,13.87
2022-11-25T21:22:54.064Z,13.07
2022-11-25T21:25:22.659Z,34.80
2022-11-25T21:27:51.141Z,13.80
2022-11-25T21:30:19.381Z,15.83
2022-11-25T21:32:46.674Z,11.83
2022-11-25T21:35:14.965Z,11.33
2022-11-25T21:37:44.543Z,24.30
2022-11-25T21:40:42.606Z,23.03
2022-11-25T21:43:39.409Z,21.97
2022-11-25T21:46:11.807Z,15.00
2022-11-25T21:48:39.999Z,12.53
2022-11-25T21:51:07.076Z,9.37
2022-11-25T21:53:37.273Z,7.30
2022-11-25T21:56:13.933Z,9.40
2022-11-25T21:58:41.033Z,6.90
2022-11-25T22:01:11.936Z,7.27
2022-11-25T22:03:38.988Z,8.73
2022-11-25T22:06:25.333Z,7.83
2022-11-25T22:08:52.608Z,8.33
2022-11-25T22:11:24.293Z,11.57
2022-11-25T22:13:51.462Z,7.87
2022-11-25T22:16:26.512Z,7.80
2022-11-25T22:18:53.719Z,7.93
2022-11-25T22:21:20.880Z,7.83
2022-11-25T22:23:47.778Z,9.57
2022-11-25T22:26:29.607Z,8.43
2022-11-25T22:28:57.045Z,8.43
2022-11-25T22:31:24.982Z,7.17
2022-11-25T22:33:52.327Z,7.87
2022-11-25T22:36:39.916Z,8.77
2022-11-25T22:39:27.143Z,6.97
2022-11-25T22:42:05.232Z,6.27
2022-11-25T22:44:39.687Z,6.23
2022-11-25T22:47:10.364Z,5.93
2022-11-25T22:49:42.940Z,6.23
2022-11-25T22:52:24.205Z,6.43
2022-11-25T22:54:51.618Z,5.87
2022-11-25T22:57:18.771Z,5.67
2022-11-25T22:59:45.832Z,6.40
2022-11-25T23:02:23.735Z,5.77
2022-11-25T23:04:56.055Z,6.73
2022-11-25T23:07:24.633Z,6.47
2022-11-25T23:09:52.239Z,6.30
2022-11-25T23:12:19.754Z,6.10
2022-11-25T23:14:46.716Z,6.33
2022-11-25T23:17:23.169Z,5.77
2022-11-25T23:19:51.091Z,6.20
2022-11-25T23:22:20.281Z,6.03
2022-11-25T23:24:48.874Z,6.43
2022-11-25T23:27:16.496Z,5.83
2022-11-25T23:29:43.536Z,6.33
2022-11-25T23:32:21.033Z,5.70
2022-11-25T23:34:50.780Z,5.90
2022-11-25T23:37:18.119Z,7.00
2022-11-25T23:39:50.210Z,5.03
2022-11-25T23:42:18.979Z,5.50
2022-11-25T23:44:46.145Z,7.10
2022-11-25T23:47:17.694Z,5.73
2022-11-25T23:49:48.435Z,5.23
2022-11-25T23:52:25.649Z,5.23
2022-11-25T23:54:53.161Z,5.80
2022-11-25T23:57:23.189Z,5.03
2022-11-25T23:59:50.852Z,5.80
